createdAt,value
2023-04-11T00:01:15.078Z,99864.81
2023-04-11T00:03:41.816Z,99859.34
2023-04-11T00:06:08.824Z,99857.38
2023-04-11T00:08:35.430Z,99859.75
2023-04-11T00:11:02.055Z,99846.78
2023-04-11T00:13:28.709Z,99838.94
2023-04-11T00:15:55.959Z,99840.09
2023-04-11T00:18:23.394Z,99813.00
2023-04-11T00:20:49.980Z,99778.94
2023-04-11T00:23:16.795Z,99763.00
2023-04-11T00:25:43.468Z,99742.25
2023-04-11T00:28:10.999Z,99724.16
2023-04-11T00:30:38.684Z,99723.84
2023-04-11T00:33:05.368Z,99723.25
2023-04-11T00:35:34.761Z,99692.53
2023-04-11T00:38:02.409Z,99658.00
2023-04-11T00:40:29.201Z,99669.56
2023-04-11T00:42:59.107Z,99672.81
2023-04-11T00:45:26.321Z,99702.47
2023-04-11T00:47:54.045Z,99736.97
2023-04-11T00:50:22.463Z,99762.34
2023-04-11T00:52:51.905Z,99783.41
2023-04-11T00:55:18.506Z,99796.03
2023-04-11T00:57:45.260Z,99799.53
2023-04-11T01:00:12.224Z,99805.25
2023-04-11T01:02:45.151Z,99811.97
2023-04-11T01:05:15.030Z,99815.66
2023-04-11T01:07:45.853Z,99822.63
2023-04-11T01:10:14.021Z,99805.31
2023-04-11T01:12:41.326Z,99817.69
2023-04-11T01:15:08.361Z,99825.97
2023-04-11T01:17:35.369Z,99800.81
2023-04-11T01:20:02.074Z,99799.72
2023-04-11T01:22:29.423Z,99797.97
2023-04-11T01:24:56.582Z,99794.91
2023-04-11T01:27:23.492Z,99815.81
2023-04-11T01:29:50.316Z,99808.78
2023-04-11T01:32:17.848Z,99809.28
2023-04-11T01:34:46.290Z,99805.22
2023-04-11T01:37:12.947Z,99804.09
2023-04-11T01:39:39.550Z,99807.16
2023-04-11T01:42:06.679Z,99800.47
2023-04-11T01:44:33.801Z,99801.25
2023-04-11T01:47:00.754Z,99801.50
2023-04-11T01:49:27.441Z,99806.78
2023-04-11T01:51:53.940Z,99799.13
2023-04-11T01:54:20.629Z,99793.31
2023-04-11T01:56:47.259Z,99799.63
2023-04-11T01:59:14.206Z,99792.97
2023-04-11T02:01:44.498Z,99778.13
2023-04-11T02:04:11.470Z,99784.53
2023-04-11T02:06:38.803Z,99771.78
2023-04-11T02:09:05.638Z,99769.34
2023-04-11T02:11:32.246Z,99762.81
2023-04-11T02:13:59.879Z,99773.84
2023-04-11T02:16:30.172Z,99774.09
2023-04-11T02:18:57.594Z,99755.25
2023-04-11T02:21:24.392Z,99743.88
2023-04-11T02:23:51.126Z,99728.78
2023-04-11T02:26:17.766Z,99721.13
2023-04-11T02:28:44.411Z,99730.16
2023-04-11T02:31:11.241Z,99721.13
2023-04-11T02:33:38.045Z,99727.72
2023-04-11T02:36:04.731Z,99727.56
2023-04-11T02:38:31.359Z,99736.84
2023-04-11T02:40:59.627Z,99733.03
2023-04-11T02:43:26.390Z,99730.25
2023-04-11T02:46:02.039Z,99729.59
2023-04-11T02:48:32.740Z,99720.06
2023-04-11T02:50:59.376Z,99706.53
2023-04-11T02:53:26.235Z,99707.31
2023-04-11T02:55:52.814Z,99697.06
2023-04-11T02:58:20.281Z,99702.44
2023-04-11T03:00:49.761Z,99695.75
2023-04-11T03:03:16.487Z,99695.09
2023-04-11T03:05:43.168Z,99690.22
2023-04-11T03:08:09.790Z,99696.19
2023-04-11T03:10:36.459Z,99705.06
2023-04-11T03:13:03.100Z,99704.25
2023-04-11T03:15:32.484Z,99713.81
2023-04-11T03:17:59.319Z,99705.88
2023-04-11T03:20:26.004Z,99706.31
2023-04-11T03:22:52.624Z,99710.44
2023-04-11T03:25:19.354Z,99714.72
2023-04-11T03:27:45.901Z,99712.69
2023-04-11T03:30:13.879Z,99706.88
2023-04-11T03:32:41.104Z,99713.00
2023-04-11T03:35:09.226Z,99711.59
2023-04-11T03:37:36.594Z,99712.94
2023-04-11T03:40:04.429Z,99704.28
2023-04-11T03:42:31.089Z,99701.00
2023-04-11T03:44:57.621Z,99706.59
2023-04-11T03:47:24.257Z,99706.47
2023-04-11T03:49:51.301Z,99720.34
2023-04-11T03:52:18.202Z,99721.41
2023-04-11T03:54:47.072Z,99725.19
2023-04-11T03:57:14.383Z,99719.56
2023-04-11T03:59:41.086Z,99722.50
2023-04-11T04:02:08.105Z,99727.81
2023-04-11T04:04:35.168Z,99709.50
2023-04-11T04:07:02.046Z,99735.03
2023-04-11T04:09:28.758Z,99723.22
2023-04-11T04:11:55.274Z,99727.91
2023-04-11T04:14:21.826Z,99728.09
2023-04-11T04:16:48.859Z,99734.00
2023-04-11T04:19:15.593Z,99735.28
2023-04-11T04:21:42.118Z,99720.91
2023-04-11T04:24:08.756Z,99740.19
2023-04-11T04:26:38.168Z,99731.66
2023-04-11T04:29:05.763Z,99735.28
2023-04-11T04:31:37.556Z,99744.91
2023-04-11T04:34:08.942Z,99744.13
2023-04-11T04:36:46.339Z,99750.22
2023-04-11T04:39:20.234Z,99752.91
2023-04-11T04:41:58.391Z,99754.56
2023-04-11T04:44:25.426Z,99766.63
2023-04-11T04:46:56.308Z,99764.50
2023-04-11T04:49:23.343Z,99775.75
2023-04-11T04:51:50.058Z,99768.72
2023-04-11T04:54:19.463Z,99770.28
2023-04-11T04:56:48.383Z,99774.94
2023-04-11T04:59:16.482Z,99796.13
2023-04-11T05:01:43.389Z,99773.13
2023-04-11T05:04:10.451Z,99774.91
2023-04-11T05:06:37.192Z,99780.19
2023-04-11T05:09:06.324Z,99797.34
2023-04-11T05:11:33.647Z,99787.25
2023-04-11T05:14:00.597Z,99795.47
2023-04-11T05:16:27.241Z,99792.22
2023-04-11T05:18:53.924Z,99792.13
2023-04-11T05:21:20.619Z,99787.09
2023-04-11T05:23:47.090Z,99788.75
2023-04-11T05:26:13.996Z,99806.41
2023-04-11T05:28:41.689Z,99800.38
2023-04-11T05:31:10.006Z,99803.44
2023-04-11T05:33:38.567Z,99801.44
2023-04-11T05:36:06.496Z,99811.84
2023-04-11T05:38:33.591Z,99804.88
2023-04-11T05:41:00.582Z,99799.94
2023-04-11T05:43:27.375Z,99805.78
2023-04-11T05:45:53.972Z,99802.66
2023-04-11T05:48:20.716Z,99804.16
2023-04-11T05:50:47.319Z,99797.16
2023-04-11T05:53:14.009Z,99810.25
2023-04-11T05:55:40.704Z,99817.47
2023-04-11T05:58:07.250Z,99802.00
2023-04-11T06:00:33.888Z,99801.59
2023-04-11T06:03:02.099Z,99805.66
2023-04-11T06:05:32.007Z,99800.63
2023-04-11T06:08:01.980Z,99786.34
2023-04-11T06:10:29.718Z,99794.09
2023-04-11T06:12:57.437Z,99793.56
2023-04-11T06:15:25.769Z,99799.03
2023-04-11T06:17:53.013Z,99796.03
2023-04-11T06:20:20.716Z,99800.06
2023-04-11T06:22:51.493Z,99799.75
2023-04-11T06:25:20.050Z,99804.78
2023-04-11T06:27:47.519Z,99811.16
2023-04-11T06:30:14.606Z,99807.25
2023-04-11T06:32:41.406Z,99807.00
2023-04-11T06:35:08.522Z,99809.50
2023-04-11T06:37:35.248Z,99806.34
2023-04-11T06:40:01.968Z,99803.25
2023-04-11T06:42:28.580Z,99798.91
2023-04-11T06:44:55.167Z,99798.09
2023-04-11T06:47:21.896Z,99804.78
2023-04-11T06:49:48.581Z,99794.94
2023-04-11T06:52:15.635Z,99799.16
2023-04-11T06:54:42.235Z,99801.75
2023-04-11T06:57:10.721Z,99793.34
2023-04-11T06:59:37.816Z,99817.50
2023-04-11T07:02:04.587Z,99841.72
2023-04-11T07:04:31.478Z,99878.25
2023-04-11T07:06:58.170Z,99895.88
2023-04-11T07:09:24.849Z,99892.41
2023-04-11T07:11:51.520Z,99887.34
2023-04-11T07:14:18.577Z,99891.97
2023-04-11T07:16:45.458Z,99889.06
2023-04-11T07:19:12.387Z,99879.19
2023-04-11T07:21:38.991Z,99891.88
2023-04-11T07:24:06.762Z,99877.38
2023-04-11T07:26:35.494Z,99880.56
2023-04-11T07:29:02.205Z,99877.66
2023-04-11T07:31:28.840Z,99882.75
2023-04-11T07:33:55.809Z,99894.38
2023-04-11T07:36:22.822Z,99890.88
2023-04-11T07:38:49.382Z,99899.03
2023-04-11T07:41:16.548Z,99903.16
2023-04-11T07:43:43.396Z,99904.69
2023-04-11T07:46:10.115Z,99908.50
2023-04-11T07:48:36.955Z,99909.56
2023-04-11T07:51:03.633Z,99922.41
2023-04-11T07:53:32.829Z,99926.06
2023-04-11T07:55:59.610Z,99931.63
2023-04-11T07:58:26.195Z,99927.22
2023-04-11T08:00:53.829Z,99935.63
2023-04-11T08:03:21.264Z,99936.69
2023-04-11T08:05:48.064Z,99943.69
2023-04-11T08:08:14.645Z,99936.69
2023-04-11T08:10:41.244Z,99945.78
2023-04-11T08:13:07.906Z,99952.34
2023-04-11T08:15:37.067Z,99950.69
2023-04-11T08:18:05.142Z,99960.88
2023-04-11T08:20:31.869Z,99953.13
2023-04-11T08:22:58.915Z,99962.59
2023-04-11T08:25:25.599Z,99966.94
2023-04-11T08:27:52.760Z,99962.72
2023-04-11T08:30:20.575Z,99952.09
2023-04-11T08:32:47.381Z,99948.38
2023-04-11T08:35:14.236Z,99971.16
2023-04-11T08:37:41.670Z,99961.88
2023-04-11T08:40:09.325Z,99961.69
2023-04-11T08:42:36.417Z,99949.88
2023-04-11T08:45:05.441Z,99957.72
2023-04-11T08:47:32.148Z,99949.88
2023-04-11T08:49:58.715Z,99943.78
2023-04-11T08:52:25.737Z,99953.88
2023-04-11T08:54:56.269Z,99956.75
2023-04-11T08:57:28.009Z,99943.91
2023-04-11T08:59:56.356Z,99946.97
2023-04-11T09:02:23.250Z,99950.81
2023-04-11T09:04:50.040Z,99956.50
2023-04-11T09:07:17.178Z,99951.50
2023-04-11T09:09:44.044Z,99948.66
2023-04-11T09:12:11.272Z,99950.41
2023-04-11T09:14:38.188Z,99951.34
2023-04-11T09:17:13.835Z,99945.16
2023-04-11T09:19:47.566Z,99945.81
2023-04-11T09:22:15.873Z,99939.81
2023-04-11T09:24:43.149Z,99946.94
2023-04-11T09:27:11.681Z,99951.50
2023-04-11T09:29:45.460Z,99950.00
2023-04-11T09:32:30.877Z,99959.19
2023-04-11T09:35:20.969Z,99942.41
2023-04-11T09:37:54.248Z,99936.84
2023-04-11T09:40:26.479Z,99942.50
2023-04-11T09:43:11.379Z,99941.59
2023-04-11T09:45:47.682Z,99959.41
2023-04-11T09:48:18.764Z,99951.97
2023-04-11T09:50:45.551Z,99951.38
2023-04-11T09:53:12.692Z,99972.16
2023-04-11T09:55:39.900Z,99939.34
2023-04-11T09:58:11.314Z,99953.38
2023-04-11T10:00:40.241Z,99950.00
2023-04-11T10:03:07.033Z,99959.44
2023-04-11T10:05:34.380Z,99944.44
2023-04-11T10:08:08.713Z,99941.72
2023-04-11T10:10:36.450Z,99949.00
2023-04-11T10:13:03.767Z,99941.31
2023-04-11T10:15:30.871Z,99938.66
2023-04-11T10:18:11.825Z,99941.84
2023-04-11T10:20:45.384Z,99939.66
2023-04-11T10:23:13.498Z,99957.03
2023-04-11T10:25:49.711Z,99954.28
2023-04-11T10:28:39.872Z,99951.47
2023-04-11T10:31:13.547Z,99947.72
2023-04-11T10:34:00.876Z,99949.59
2023-04-11T10:36:27.606Z,99952.91
2023-04-11T10:38:54.150Z,99949.22
2023-04-11T10:41:25.430Z,99953.06
2023-04-11T10:43:53.002Z,99944.88
2023-04-11T10:46:21.831Z,99954.84
2023-04-11T10:49:02.658Z,99951.22
2023-04-11T10:51:31.715Z,99959.25
2023-04-11T10:54:00.274Z,99960.91
2023-04-11T10:56:51.594Z,99972.56
2023-04-11T10:59:36.441Z,99970.84
2023-04-11T11:02:03.421Z,99958.38
2023-04-11T11:04:37.935Z,99952.31
2023-04-11T11:07:06.529Z,99986.03
2023-04-11T11:09:34.282Z,99980.13
2023-04-11T11:12:14.342Z,99967.09
2023-04-11T11:14:43.803Z,99979.84
2023-04-11T11:17:13.189Z,99959.94
2023-04-11T11:19:47.077Z,99961.75
2023-04-11T11:22:17.888Z,99973.19
2023-04-11T11:24:44.555Z,99973.28
2023-04-11T11:27:21.371Z,99979.91
2023-04-11T11:29:48.379Z,99988.63
2023-04-11T11:32:28.860Z,99990.94
2023-04-11T11:34:57.819Z,99981.50
2023-04-11T11:37:26.292Z,99977.22
2023-04-11T11:39:53.643Z,99975.41
2023-04-11T11:42:20.654Z,99972.75
2023-04-11T11:44:47.340Z,99970.13
2023-04-11T11:47:16.884Z,99968.78
2023-04-11T11:49:54.434Z,99967.75
2023-04-11T11:52:41.472Z,99980.59
2023-04-11T11:55:20.492Z,99976.31
2023-04-11T11:57:48.137Z,99972.53
2023-04-11T12:00:23.547Z,99978.50
2023-04-11T12:02:53.337Z,99961.69
2023-04-11T12:05:20.604Z,99983.38
2023-04-11T12:07:47.246Z,99970.38
2023-04-11T12:10:14.613Z,99974.22
2023-04-11T12:12:43.273Z,99979.06
2023-04-11T12:15:17.212Z,99992.13
2023-04-11T12:17:48.760Z,99998.59
2023-04-11T12:20:15.937Z,99993.97
2023-04-11T12:22:42.583Z,100007.75
2023-04-11T12:25:13.090Z,100014.63
2023-04-11T12:27:41.740Z,99994.94
2023-04-11T12:30:12.126Z,100053.38
2023-04-11T12:32:38.933Z,100022.66
2023-04-11T12:35:06.672Z,100043.63
2023-04-11T12:37:34.504Z,100043.56
2023-04-11T12:40:02.025Z,100047.78
2023-04-11T12:42:28.663Z,100045.38
2023-04-11T12:44:55.193Z,100059.91
2023-04-11T12:47:22.041Z,100051.56
2023-04-11T12:49:48.806Z,100055.13
2023-04-11T12:52:15.793Z,100060.91
2023-04-11T12:54:42.482Z,100074.22
2023-04-11T12:57:09.116Z,100064.28
2023-04-11T12:59:35.814Z,100070.84
2023-04-11T13:02:02.513Z,100060.91
2023-04-11T13:04:29.327Z,100065.94
2023-04-11T13:07:00.960Z,100062.72
2023-04-11T13:09:34.575Z,100062.47
2023-04-11T13:12:04.651Z,100074.91
2023-04-11T13:14:31.493Z,100056.75
2023-04-11T13:16:58.122Z,100063.69
2023-04-11T13:19:24.671Z,100061.88
2023-04-11T13:21:51.313Z,100078.09
2023-04-11T13:24:17.910Z,100054.31
2023-04-11T13:26:45.267Z,100061.53
2023-04-11T13:29:14.799Z,100078.47
2023-04-11T13:31:41.675Z,100065.59
2023-04-11T13:34:08.712Z,100073.81
2023-04-11T13:36:35.849Z,100103.09
2023-04-11T13:39:02.488Z,100099.59
2023-04-11T13:41:29.068Z,100081.44
2023-04-11T13:43:56.168Z,100075.69
2023-04-11T13:46:23.396Z,100082.78
2023-04-11T13:48:50.024Z,100086.38
2023-04-11T13:51:16.556Z,100083.84
2023-04-11T13:53:43.402Z,100070.00
2023-04-11T13:56:10.818Z,100070.06
2023-04-11T13:58:38.422Z,100057.66
2023-04-11T14:01:05.478Z,100072.31
2023-04-11T14:03:33.874Z,100076.69
2023-04-11T14:06:01.221Z,100070.22
2023-04-11T14:08:29.098Z,100083.78
2023-04-11T14:10:55.952Z,100069.13
2023-04-11T14:13:22.706Z,100082.66
2023-04-11T14:15:52.191Z,100088.03
2023-04-11T14:18:27.916Z,100089.03
2023-04-11T14:20:56.745Z,100082.91
2023-04-11T14:23:23.494Z,100085.41
2023-04-11T14:25:50.908Z,100092.03
2023-04-11T14:28:18.524Z,100090.31
2023-04-11T14:30:45.616Z,100083.19
2023-04-11T14:33:12.699Z,100076.63
2023-04-11T14:35:39.451Z,100100.41
2023-04-11T14:38:06.025Z,100150.72
2023-04-11T14:40:32.616Z,100171.25
2023-04-11T14:42:59.255Z,100208.56
2023-04-11T14:45:25.971Z,100174.94
2023-04-11T14:47:52.682Z,100172.78
2023-04-11T14:50:19.405Z,100126.00
2023-04-11T14:52:48.303Z,100119.72
2023-04-11T14:55:14.977Z,100088.69
2023-04-11T14:57:45.421Z,100085.69
2023-04-11T15:00:18.404Z,100092.41
2023-04-11T15:02:46.785Z,100099.38
2023-04-11T15:05:18.182Z,100107.06
2023-04-11T15:07:46.768Z,100130.25
2023-04-11T15:10:14.839Z,100143.34
2023-04-11T15:12:41.737Z,100145.34
2023-04-11T15:15:09.642Z,100136.38
2023-04-11T15:17:46.464Z,100132.63
2023-04-11T15:20:14.733Z,100140.66
2023-04-11T15:22:45.731Z,100135.75
2023-04-11T15:25:16.252Z,100133.88
2023-04-11T15:27:43.453Z,100141.56
2023-04-11T15:30:11.579Z,100150.81
2023-04-11T15:32:45.107Z,100158.66
2023-04-11T15:35:12.042Z,100147.91
2023-04-11T15:37:38.663Z,100150.25
2023-04-11T15:42:38.471Z,100142.41
2023-04-11T15:45:05.717Z,100145.72
2023-04-11T15:47:33.697Z,100148.16
2023-04-11T15:50:04.435Z,100148.97
2023-04-11T15:52:31.074Z,100152.81
2023-04-11T15:54:57.646Z,100159.41
2023-04-11T15:57:24.398Z,100154.56
2023-04-11T15:59:50.908Z,100137.97
2023-04-11T16:02:20.273Z,100152.66
2023-04-11T16:04:48.165Z,100158.78
2023-04-11T16:07:19.323Z,100156.88
2023-04-11T16:09:46.610Z,100159.34
2023-04-11T16:12:13.472Z,100156.41
2023-04-11T16:14:40.193Z,100164.59
2023-04-11T16:17:06.680Z,100165.53
2023-04-11T16:19:33.356Z,100160.59
2023-04-11T16:21:59.834Z,100165.47
2023-04-11T16:24:28.840Z,100163.56
2023-04-11T16:26:57.019Z,100167.66
2023-04-11T16:29:23.604Z,100161.28
2023-04-11T16:31:50.222Z,100164.44
2023-04-11T16:34:17.180Z,100165.09
2023-04-11T16:36:44.009Z,100165.19
2023-04-11T16:39:10.573Z,100166.41
2023-04-11T16:41:37.125Z,100171.66
2023-04-11T16:44:06.082Z,100160.69
2023-04-11T16:46:35.690Z,100159.22
2023-04-11T16:49:02.249Z,100164.38
2023-04-11T16:51:28.805Z,100159.66
2023-04-11T16:53:56.292Z,100164.31
2023-04-11T16:56:26.688Z,100165.44
2023-04-11T16:58:54.025Z,100170.38
2023-04-11T17:01:20.854Z,100169.06
2023-04-11T17:03:47.705Z,100177.72
2023-04-11T17:06:16.384Z,100178.03
2023-04-11T17:08:44.491Z,100168.88
2023-04-11T17:11:11.484Z,100176.75
2023-04-11T17:13:40.463Z,100177.53
2023-04-11T17:16:08.194Z,100186.69
2023-04-11T17:18:34.953Z,100186.16
2023-04-11T17:21:01.677Z,100183.94
2023-04-11T17:23:41.257Z,100181.97
2023-04-11T17:26:09.512Z,100184.59
2023-04-11T17:28:36.470Z,100187.56
2023-04-11T17:35:31.178Z,100188.94
2023-04-11T17:37:57.812Z,100190.47
2023-04-11T17:40:24.423Z,100189.34
2023-04-11T17:42:51.541Z,100189.84
2023-04-11T17:45:21.968Z,100191.13
2023-04-11T17:47:48.861Z,100187.19
2023-04-11T17:50:16.638Z,100189.00
2023-04-11T17:52:45.174Z,100193.78
2023-04-11T17:55:13.439Z,100194.28
2023-04-11T17:57:40.355Z,100195.84
2023-04-11T18:00:22.467Z,100204.16
2023-04-11T18:02:54.697Z,100200.09
2023-04-11T18:05:24.891Z,100202.69
2023-04-11T18:07:54.271Z,100201.53
2023-04-11T18:10:22.273Z,100201.19
2023-04-11T18:12:51.670Z,100208.94
2023-04-11T18:15:19.056Z,100216.13
2023-04-11T18:17:46.026Z,100212.97
2023-04-11T18:20:16.921Z,100212.53
2023-04-11T18:22:51.861Z,100220.63
2023-04-11T18:25:20.526Z,100221.44
2023-04-11T18:27:47.349Z,100219.69
2023-04-11T18:30:15.849Z,100217.94
2023-04-11T18:32:48.064Z,100218.56
2023-04-11T18:35:16.411Z,100215.75
2023-04-11T18:37:43.604Z,100221.28
2023-04-11T18:40:12.080Z,100211.19
2023-04-11T18:42:47.850Z,100220.09
2023-04-11T18:45:17.990Z,100218.69
2023-04-11T18:47:47.737Z,100216.94
2023-04-11T18:50:15.570Z,100212.72
2023-04-11T18:52:43.343Z,100221.16
2023-04-11T18:55:10.865Z,100216.91
2023-04-11T18:57:38.593Z,100216.00
2023-04-11T19:00:18.547Z,100215.75
2023-04-11T19:02:47.027Z,100214.22
2023-04-11T19:05:14.493Z,100222.63
2023-04-11T19:07:42.376Z,100231.00
2023-04-11T19:10:10.953Z,100224.06
2023-04-11T19:12:37.980Z,100217.97
2023-04-11T19:15:09.343Z,100214.69
2023-04-11T19:17:41.493Z,100222.03
2023-04-11T19:20:13.221Z,100213.13
2023-04-11T19:22:41.223Z,100210.53
2023-04-11T19:25:11.964Z,100212.59
2023-04-11T19:27:41.582Z,100227.63
2023-04-11T19:30:10.350Z,100219.91
2023-04-11T21:42:37.281Z,100155.97
2023-04-11T21:45:04.319Z,100157.22
2023-04-11T21:47:31.020Z,100152.09
2023-04-11T21:49:57.634Z,100148.41
2023-04-11T21:52:24.272Z,100137.72
2023-04-11T21:54:51.004Z,100140.19
2023-04-11T21:57:17.517Z,100137.69
2023-04-11T21:59:44.110Z,100138.31
2023-04-11T22:02:10.946Z,100138.09
2023-04-11T22:04:51.346Z,100135.44
2023-04-11T22:07:26.771Z,100129.06
2023-04-11T22:09:59.966Z,100136.88
2023-04-11T22:12:27.283Z,100129.50
2023-04-11T22:14:57.382Z,100127.41
2023-04-11T22:17:24.120Z,100122.50
2023-04-11T22:19:50.730Z,100120.22
2023-04-11T22:22:18.106Z,100110.97
2023-04-11T22:24:46.568Z,100113.84
2023-04-11T22:27:13.841Z,100113.41
2023-04-11T22:29:41.507Z,100117.13
2023-04-11T22:32:08.523Z,100110.53
2023-04-11T22:34:35.166Z,100113.59
2023-04-11T22:37:01.744Z,100112.97
2023-04-11T22:39:28.422Z,100105.34
2023-04-11T22:41:55.538Z,100102.28
2023-04-11T22:44:22.191Z,100094.88
2023-04-11T22:47:08.943Z,100095.72
2023-04-11T22:49:42.132Z,100091.38
2023-04-11T22:52:10.888Z,100100.41
2023-04-11T22:54:38.706Z,100097.72
2023-04-11T22:57:05.683Z,100101.81
2023-04-11T22:59:32.661Z,100091.75
2023-04-11T23:01:59.340Z,100087.84
2023-04-11T23:04:26.400Z,100086.59
2023-04-11T23:06:53.884Z,100077.56
2023-04-11T23:09:20.995Z,100081.44
2023-04-11T23:11:48.889Z,100072.22
2023-04-11T23:14:18.196Z,100072.63
2023-04-11T23:16:45.289Z,100064.19
2023-04-11T23:19:12.339Z,100069.72
2023-04-11T23:21:39.018Z,100070.09
2023-04-11T23:24:07.086Z,100066.41
2023-04-11T23:26:33.977Z,100056.97
2023-04-11T23:29:01.054Z,100053.38
2023-04-11T23:31:28.038Z,100047.53
2023-04-11T23:33:55.778Z,100042.41
2023-04-11T23:36:22.942Z,100039.16
2023-04-11T23:38:49.425Z,100034.09
2023-04-11T23:41:16.010Z,100032.78
2023-04-11T23:43:42.728Z,100016.16
2023-04-11T23:46:09.571Z,100007.53
2023-04-11T23:48:36.168Z,100016.63
2023-04-11T23:51:02.744Z,100010.19
2023-04-11T23:53:29.444Z,100006.94
2023-04-11T23:55:56.088Z,99996.66
2023-04-11T23:58:22.731Z,99994.41
